sensor_id;sensor_type;location;lat;lon;timestamp;pressure;altitude;pressure_sealevel;temperature;humidity
11448;BME280;43755;49.736;8.734;2023-04-26T00:00:21;97956.06;;;2.15;100.00
11448;BME280;43755;49.736;8.734;2023-04-26T00:02:23;97958.66;;;2.13;100.00
11448;BME280;43755;49.736;8.734;2023-04-26T00:04:26;97951.72;;;2.12;100.00
11448;BME280;43755;49.736;8.734;2023-04-26T00:06:28;97952.63;;;2.11;100.00
11448;BME280;43755;49.736;8.734;2023-04-26T00:08:30;97955.25;;;2.10;100.00
11448;BME280;43755;49.736;8.734;2023-04-26T00:10:32;97955.25;;;2.06;100.00
11448;BME280;43755;49.736;8.734;2023-04-26T00:12:34;97954.44;;;2.01;100.00
11448;BME280;43755;49.736;8.734;2023-04-26T00:14:36;97949.25;;;2.00;100.00
11448;BME280;43755;49.736;8.734;2023-04-26T00:16:37;97952.69;;;2.03;100.00
11448;BME280;43755;49.736;8.734;2023-04-26T00:18:39;97956.22;;;1.98;100.00
11448;BME280;43755;49.736;8.734;2023-04-26T00:20:40;97953.66;;;1.92;100.00
11448;BME280;43755;49.736;8.734;2023-04-26T00:22:41;97950.19;;;1.94;100.00
11448;BME280;43755;49.736;8.734;2023-04-26T00:24:43;97950.19;;;1.93;100.00
11448;BME280;43755;49.736;8.734;2023-04-26T00:26:46;97955.47;;;1.88;100.00
11448;BME280;43755;49.736;8.734;2023-04-26T00:28:47;97959.00;;;1.81;100.00
11448;BME280;43755;49.736;8.734;2023-04-26T00:30:49;97952.88;;;1.84;100.00
11448;BME280;43755;49.736;8.734;2023-04-26T00:32:50;97956.34;;;1.86;100.00
11448;BME280;43755;49.736;8.734;2023-04-26T00:34:52;97960.00;;;1.63;100.00
11448;BME280;43755;49.736;8.734;2023-04-26T00:36:53;97960.16;;;1.45;100.00
11448;BME280;43755;49.736;8.734;2023-04-26T00:38:54;97961.91;;;1.45;100.00
11448;BME280;43755;49.736;8.734;2023-04-26T00:40:56;97973.16;;;1.48;100.00
11448;BME280;43755;49.736;8.734;2023-04-26T00:42:59;97967.06;;;1.52;100.00
11448;BME280;43755;49.736;8.734;2023-04-26T00:45:00;97962.69;;;1.54;100.00
11448;BME280;43755;49.736;8.734;2023-04-26T00:47:02;97971.38;;;1.56;100.00
11448;BME280;43755;49.736;8.734;2023-04-26T00:49:03;97967.03;;;1.57;100.00
11448;BME280;43755;49.736;8.734;2023-04-26T00:51:05;97958.31;;;1.56;100.00
11448;BME280;43755;49.736;8.734;2023-04-26T00:53:07;97960.06;;;1.57;100.00
11448;BME280;43755;49.736;8.734;2023-04-26T00:55:09;97970.53;;;1.51;100.00
11448;BME280;43755;49.736;8.734;2023-04-26T00:57:11;97969.69;;;1.48;100.00
11448;BME280;43755;49.736;8.734;2023-04-26T00:59:14;97965.38;;;1.45;100.00
11448;BME280;43755;49.736;8.734;2023-04-26T01:01:15;97964.47;;;1.49;100.00
11448;BME280;43755;49.736;8.734;2023-04-26T01:03:17;97971.41;;;1.50;100.00
11448;BME280;43755;49.736;8.734;2023-04-26T01:05:18;97975.75;;;1.51;100.00
11448;BME280;43755;49.736;8.734;2023-04-26T01:07:19;97962.72;;;1.48;100.00
11448;BME280;43755;49.736;8.734;2023-04-26T01:09:21;97967.88;;;1.56;100.00
11448;BME280;43755;49.736;8.734;2023-04-26T01:11:23;97961.81;;;1.54;100.00
11448;BME280;43755;49.736;8.734;2023-04-26T01:13:25;97961.81;;;1.54;100.00
11448;BME280;43755;49.736;8.734;2023-04-26T01:15:27;97965.31;;;1.50;100.00
11448;BME280;43755;49.736;8.734;2023-04-26T01:17:29;97974.94;;;1.45;100.00
11448;BME280;43755;49.736;8.734;2023-04-26T01:19:31;97973.16;;;1.50;100.00
11448;BME280;43755;49.736;8.734;2023-04-26T01:21:32;97969.72;;;1.45;100.00
11448;BME280;43755;49.736;8.734;2023-04-26T01:23:35;97961.91;;;1.43;100.00
11448;BME280;43755;49.736;8.734;2023-04-26T01:25:36;97966.28;;;1.38;100.00
11448;BME280;43755;49.736;8.734;2023-04-26T01:27:38;97961.97;;;1.33;100.00
11448;BME280;43755;49.736;8.734;2023-04-26T01:29:40;97965.47;;;1.30;100.00
11448;BME280;43755;49.736;8.734;2023-04-26T01:31:42;97958.53;;;1.26;100.00
11448;BME280;43755;49.736;8.734;2023-04-26T01:33:43;97957.69;;;1.24;100.00
11448;BME280;43755;49.736;8.734;2023-04-26T01:35:45;97955.03;;;1.32;100.00
11448;BME280;43755;49.736;8.734;2023-04-26T01:37:46;97962.88;;;1.26;100.00
11448;BME280;43755;49.736;8.734;2023-04-26T01:39:49;97959.41;;;1.25;100.00
11448;BME280;43755;49.736;8.734;2023-04-26T01:41:50;97962.09;;;1.17;100.00
11448;BME280;43755;49.736;8.734;2023-04-26T01:43:52;97954.31;;;1.10;100.00
11448;BME280;43755;49.736;8.734;2023-04-26T01:45:54;97951.69;;;1.17;100.00
11448;BME280;43755;49.736;8.734;2023-04-26T01:47:56;97956.84;;;1.20;100.00
11448;BME280;43755;49.736;8.734;2023-04-26T01:49:57;97953.38;;;1.20;100.00
11448;BME280;43755;49.736;8.734;2023-04-26T01:52:00;97959.50;;;1.14;100.00
11448;BME280;43755;49.736;8.734;2023-04-26T01:54:01;97959.53;;;1.10;100.00
11448;BME280;43755;49.736;8.734;2023-04-26T01:56:05;97962.16;;;1.02;100.00
11448;BME280;43755;49.736;8.734;2023-04-26T01:58:06;97956.97;;;1.04;100.00
11448;BME280;43755;49.736;8.734;2023-04-26T02:00:09;97964.78;;;1.02;100.00
11448;BME280;43755;49.736;8.734;2023-04-26T02:02:10;97968.25;;;1.03;100.00
11448;BME280;43755;49.736;8.734;2023-04-26T02:04:12;97965.66;;;1.01;100.00
11448;BME280;43755;49.736;8.734;2023-04-26T02:06:13;97972.63;;;0.99;100.00
11448;BME280;43755;49.736;8.734;2023-04-26T02:08:14;97966.53;;;0.99;100.00
11448;BME280;43755;49.736;8.734;2023-04-26T02:10:16;97959.56;;;1.05;100.00
11448;BME280;43755;49.736;8.734;2023-04-26T02:12:18;97957.81;;;1.06;100.00
11448;BME280;43755;49.736;8.734;2023-04-26T02:14:20;97958.69;;;1.05;100.00
11448;BME280;43755;49.736;8.734;2023-04-26T02:16:24;97960.44;;;1.04;100.00
11448;BME280;43755;49.736;8.734;2023-04-26T02:18:26;97961.31;;;1.00;100.00
11448;BME280;43755;49.736;8.734;2023-04-26T02:20:28;97959.59;;;0.99;100.00
11448;BME280;43755;49.736;8.734;2023-04-26T02:22:30;97965.69;;;0.98;100.00
11448;BME280;43755;49.736;8.734;2023-04-26T02:24:31;97968.28;;;0.98;100.00
11448;BME280;43755;49.736;8.734;2023-04-26T02:26:33;97965.72;;;0.91;100.00
11448;BME280;43755;49.736;8.734;2023-04-26T02:28:36;97970.09;;;0.86;100.00
11448;BME280;43755;49.736;8.734;2023-04-26T02:30:38;97967.47;;;0.84;100.00
11448;BME280;43755;49.736;8.734;2023-04-26T02:32:39;97961.44;;;0.82;100.00
11448;BME280;43755;49.736;8.734;2023-04-26T02:34:43;97963.16;;;0.80;100.00
11448;BME280;43755;49.736;8.734;2023-04-26T02:36:44;97963.13;;;0.85;100.00
11448;BME280;43755;49.736;8.734;2023-04-26T02:38:46;97957.09;;;0.81;100.00
11448;BME280;43755;49.736;8.734;2023-04-26T02:40:47;97964.03;;;0.82;100.00
11448;BME280;43755;49.736;8.734;2023-04-26T02:42:48;97963.16;;;0.78;100.00
11448;BME280;43755;49.736;8.734;2023-04-26T02:44:51;97964.03;;;0.77;100.00
11448;BME280;43755;49.736;8.734;2023-04-26T02:46:53;97957.13;;;0.75;100.00
11448;BME280;43755;49.736;8.734;2023-04-26T02:48:54;97952.75;;;0.80;100.00
11448;BME280;43755;49.736;8.734;2023-04-26T02:50:56;97951.00;;;0.79;100.00
11448;BME280;43755;49.736;8.734;2023-04-26T02:52:57;97953.63;;;0.77;100.00
11448;BME280;43755;49.736;8.734;2023-04-26T02:54:59;97954.50;;;0.72;100.00
11448;BME280;43755;49.736;8.734;2023-04-26T02:57:00;97954.56;;;0.60;100.00
11448;BME280;43755;49.736;8.734;2023-04-26T02:59:01;97951.06;;;0.70;100.00
11448;BME280;43755;49.736;8.734;2023-04-26T03:01:04;97951.91;;;0.72;100.00
11448;BME280;43755;49.736;8.734;2023-04-26T03:03:06;97951.09;;;0.64;100.00
11448;BME280;43755;49.736;8.734;2023-04-26T03:05:08;97954.56;;;0.61;100.00
11448;BME280;43755;49.736;8.734;2023-04-26T03:07:09;97958.06;;;0.56;100.00
11448;BME280;43755;49.736;8.734;2023-04-26T03:09:11;97955.50;;;0.53;100.00
11448;BME280;43755;49.736;8.734;2023-04-26T03:11:12;97957.19;;;0.54;100.00
11448;BME280;43755;49.736;8.734;2023-04-26T03:13:14;97959.81;;;0.49;100.00
11448;BME280;43755;49.736;8.734;2023-04-26T03:15:15;97948.56;;;0.44;100.00
11448;BME280;43755;49.736;8.734;2023-04-26T03:17:18;97948.56;;;0.46;100.00
11448;BME280;43755;49.736;8.734;2023-04-26T03:19:19;97956.38;;;0.43;100.00
11448;BME280;43755;49.736;8.734;2023-04-26T03:21:21;97949.44;;;0.41;100.00
11448;BME280;43755;49.736;8.734;2023-04-26T03:23:22;97953.78;;;0.39;100.00
11448;BME280;43755;49.736;8.734;2023-04-26T03:25:24;97954.66;;;0.40;100.00
11448;BME280;43755;49.736;8.734;2023-04-26T03:27:25;97950.28;;;0.42;100.00
11448;BME280;43755;49.736;8.734;2023-04-26T03:29:27;97949.44;;;0.41;100.00
11448;BME280;43755;49.736;8.734;2023-04-26T03:31:28;97945.13;;;0.39;100.00
11448;BME280;43755;49.736;8.734;2023-04-26T03:33:32;97951.19;;;0.39;100.00
11448;BME280;43755;49.736;8.734;2023-04-26T03:35:33;97953.78;;;0.36;100.00
11448;BME280;43755;49.736;8.734;2023-04-26T03:37:34;97956.41;;;0.39;100.00
11448;BME280;43755;49.736;8.734;2023-04-26T03:39:38;97959.88;;;0.38;100.00
11448;BME280;43755;49.736;8.734;2023-04-26T03:41:40;97950.31;;;0.37;100.00
11448;BME280;43755;49.736;8.734;2023-04-26T03:43:41;97947.75;;;0.33;100.00
11448;BME280;43755;49.736;8.734;2023-04-26T03:45:45;97947.75;;;0.24;100.00
11448;BME280;43755;49.736;8.734;2023-04-26T03:47:47;97950.41;;;0.16;100.00
11448;BME280;43755;49.736;8.734;2023-04-26T03:49:50;97947.78;;;0.19;100.00
11448;BME280;43755;49.736;8.734;2023-04-26T03:51:51;97952.97;;;0.19;100.00
11448;BME280;43755;49.736;8.734;2023-04-26T03:53:53;97952.97;;;0.18;100.00
11448;BME280;43755;49.736;8.734;2023-04-26T03:55:53;97949.53;;;0.14;100.00
11448;BME280;43755;49.736;8.734;2023-04-26T03:57:55;97953.88;;;0.17;100.00
11448;BME280;43755;49.736;8.734;2023-04-26T03:59:57;97955.59;;;0.15;100.00
11448;BME280;43755;49.736;8.734;2023-04-26T04:01:58;97954.75;;;0.11;100.00
11448;BME280;43755;49.736;8.734;2023-04-26T04:04:00;97951.28;;;0.09;100.00
11448;BME280;43755;49.736;8.734;2023-04-26T04:06:03;97947.81;;;0.04;100.00
11448;BME280;43755;49.736;8.734;2023-04-26T04:08:05;97950.44;;;-0.10;100.00
11448;BME280;43755;49.736;8.734;2023-04-26T04:10:07;97945.25;;;-0.17;100.00
11448;BME280;43755;49.736;8.734;2023-04-26T04:12:09;97948.72;;;-0.20;100.00
11448;BME280;43755;49.736;8.734;2023-04-26T04:14:11;97940.91;;;-0.23;100.00
11448;BME280;43755;49.736;8.734;2023-04-26T04:16:12;97946.13;;;-0.12;100.00
11448;BME280;43755;49.736;8.734;2023-04-26T04:18:13;97941.78;;;-0.09;100.00
11448;BME280;43755;49.736;8.734;2023-04-26T04:20:15;97937.41;;;-0.05;100.00
11448;BME280;43755;49.736;8.734;2023-04-26T04:22:18;97946.09;;;-0.03;100.00
11448;BME280;43755;49.736;8.734;2023-04-26T04:24:19;97942.63;;;-0.05;100.00
11448;BME280;43755;49.736;8.734;2023-04-26T04:26:21;97947.81;;;0.04;100.00
11448;BME280;43755;49.736;8.734;2023-04-26T04:28:22;97946.94;;;0.02;100.00
11448;BME280;43755;49.736;8.734;2023-04-26T04:30:24;97950.44;;;-0.04;100.00
11448;BME280;43755;49.736;8.734;2023-04-26T04:32:25;97951.31;;;-0.06;100.00
11448;BME280;43755;49.736;8.734;2023-04-26T04:34:28;97953.00;;;0.01;100.00
11448;BME280;43755;49.736;8.734;2023-04-26T04:36:30;97953.88;;;0.06;100.00
11448;BME280;43755;49.736;8.734;2023-04-26T04:38:34;97949.53;;;0.13;100.00
11448;BME280;43755;49.736;8.734;2023-04-26T04:40:36;97949.53;;;0.14;100.00
11448;BME280;43755;49.736;8.734;2023-04-26T04:42:37;97952.97;;;0.19;100.00
11448;BME280;43755;49.736;8.734;2023-04-26T04:44:39;97961.63;;;0.30;100.00
11448;BME280;43755;49.736;8.734;2023-04-26T04:46:41;97965.06;;;0.38;100.00
11448;BME280;43755;49.736;8.734;2023-04-26T04:48:42;97960.69;;;0.48;100.00
11448;BME280;43755;49.736;8.734;2023-04-26T04:50:44;97960.69;;;0.50;100.00
11448;BME280;43755;49.736;8.734;2023-04-26T04:52:46;97960.69;;;0.53;100.00
11448;BME280;43755;49.736;8.734;2023-04-26T04:54:48;97968.47;;;0.56;100.00
11448;BME280;43755;49.736;8.734;2023-04-26T04:56:50;97972.78;;;0.61;100.00
11448;BME280;43755;49.736;8.734;2023-04-26T04:58:51;97973.66;;;0.65;100.00
11448;BME280;43755;49.736;8.734;2023-04-26T05:00:53;97979.72;;;0.68;100.00
11448;BME280;43755;49.736;8.734;2023-04-26T05:02:55;97978.78;;;0.77;100.00
11448;BME280;43755;49.736;8.734;2023-04-26T05:04:56;97980.53;;;0.81;100.00
11448;BME280;43755;49.736;8.734;2023-04-26T05:06:58;97986.53;;;0.89;100.00
11448;BME280;43755;49.736;8.734;2023-04-26T05:08:59;97983.03;;;0.95;100.00
11448;BME280;43755;49.736;8.734;2023-04-26T05:11:02;97985.63;;;1.02;100.00
11448;BME280;43755;49.736;8.734;2023-04-26T05:13:04;97986.41;;;1.13;100.00
11448;BME280;43755;49.736;8.734;2023-04-26T05:15:06;97990.72;;;1.20;100.00
11448;BME280;43755;49.736;8.734;2023-04-26T05:17:08;97988.09;;;1.28;100.00
11448;BME280;43755;49.736;8.734;2023-04-26T05:19:09;97990.59;;;1.39;100.00
11448;BME280;43755;49.736;8.734;2023-04-26T05:21:12;97988.78;;;1.51;100.00
11448;BME280;43755;49.736;8.734;2023-04-26T05:23:13;97988.66;;;1.68;100.00
11448;BME280;43755;49.736;8.734;2023-04-26T05:25:15;97987.69;;;1.80;100.00
11448;BME280;43755;49.736;8.734;2023-04-26T05:27:18;97990.16;;;1.96;100.00
11448;BME280;43755;49.736;8.734;2023-04-26T05:29:19;97990.91;;;2.09;100.00
11448;BME280;43755;49.736;8.734;2023-04-26T05:31:21;97989.03;;;2.23;100.00
11448;BME280;43755;49.736;8.734;2023-04-26T05:33:22;97992.47;;;2.27;100.00
11448;BME280;43755;49.736;8.734;2023-04-26T05:35:24;97988.94;;;2.31;100.00
11448;BME280;43755;49.736;8.734;2023-04-26T05:37:25;98003.66;;;2.36;100.00
11448;BME280;43755;49.736;8.734;2023-04-26T05:39:26;98003.59;;;2.44;100.00
11448;BME280;43755;49.736;8.734;2023-04-26T05:41:28;97996.53;;;2.54;100.00
11448;BME280;43755;49.736;8.734;2023-04-26T05:43:31;97995.63;;;2.59;100.00
11448;BME280;43755;49.736;8.734;2023-04-26T05:45:32;97992.94;;;2.64;100.00
11448;BME280;43755;49.736;8.734;2023-04-26T05:47:33;97997.19;;;2.72;100.00
11448;BME280;43755;49.736;8.734;2023-04-26T05:49:35;97998.78;;;2.84;100.00
11448;BME280;43755;49.736;8.734;2023-04-26T05:51:37;97997.81;;;2.91;100.00
11448;BME280;43755;49.736;8.734;2023-04-26T05:53:38;97993.38;;;2.98;100.00
11448;BME280;43755;49.736;8.734;2023-04-26T05:55:41;97990.69;;;3.05;100.00
11448;BME280;43755;49.736;8.734;2023-04-26T05:57:42;97988.84;;;3.12;100.00
11448;BME280;43755;49.736;8.734;2023-04-26T05:59:45;97997.44;;;3.20;100.00
11448;BME280;43755;49.736;8.734;2023-04-26T06:01:47;98005.19;;;3.27;100.00
11448;BME280;43755;49.736;8.734;2023-04-26T06:03:49;98002.34;;;3.43;100.00
11448;BME280;43755;49.736;8.734;2023-04-26T06:05:50;97999.56;;;3.55;100.00
11448;BME280;43755;49.736;8.734;2023-04-26T06:07:52;98001.16;;;3.65;100.00
11448;BME280;43755;49.736;8.734;2023-04-26T06:09:53;98014.09;;;3.72;100.00
11448;BME280;43755;49.736;8.734;2023-04-26T06:11:55;98008.75;;;3.82;100.00
11448;BME280;43755;49.736;8.734;2023-04-26T06:13:56;98009.53;;;3.87;100.00
11448;BME280;43755;49.736;8.734;2023-04-26T06:15:59;98013.72;;;3.95;100.00
11448;BME280;43755;49.736;8.734;2023-04-26T06:18:00;98014.38;;;4.09;100.00
11448;BME280;43755;49.736;8.734;2023-04-26T06:20:02;98012.47;;;4.19;100.00
11448;BME280;43755;49.736;8.734;2023-04-26T06:22:04;98018.25;;;4.36;100.00
11448;BME280;43755;49.736;8.734;2023-04-26T06:24:07;98020.63;;;4.51;100.00
11448;BME280;43755;49.736;8.734;2023-04-26T06:26:08;98018.69;;;4.60;100.00
11448;BME280;43755;49.736;8.734;2023-04-26T06:28:10;98022.03;;;4.69;100.00
11448;BME280;43755;49.736;8.734;2023-04-26T06:30:12;98019.28;;;4.77;100.00
11448;BME280;43755;49.736;8.734;2023-04-26T06:32:15;98022.56;;;4.86;100.00
11448;BME280;43755;49.736;8.734;2023-04-26T06:34:16;98023.31;;;4.93;100.00
11448;BME280;43755;49.736;8.734;2023-04-26T06:36:18;98027.53;;;5.00;100.00
11448;BME280;43755;49.736;8.734;2023-04-26T06:38:19;98021.94;;;5.18;100.00
11448;BME280;43755;49.736;8.734;2023-04-26T06:40:20;98034.00;;;5.25;100.00
11448;BME280;43755;49.736;8.734;2023-04-26T06:42:22;98034.72;;;5.32;100.00
11448;BME280;43755;49.736;8.734;2023-04-26T06:44:23;98038.09;;;5.37;100.00
11448;BME280;43755;49.736;8.734;2023-04-26T06:46:25;98032.81;;;5.40;100.00
11448;BME280;43755;49.736;8.734;2023-04-26T06:48:27;98031.06;;;5.39;100.00
11448;BME280;43755;49.736;8.734;2023-04-26T06:50:29;98030.09;;;5.43;100.00
11448;BME280;43755;49.736;8.734;2023-04-26T06:52:30;98032.59;;;5.49;100.00
11448;BME280;43755;49.736;8.734;2023-04-26T06:54:32;98029.66;;;5.64;100.00
11448;BME280;43755;49.736;8.734;2023-04-26T06:56:33;98024.97;;;5.77;100.00
11448;BME280;43755;49.736;8.734;2023-04-26T06:58:35;98024.69;;;5.89;100.00
11448;BME280;43755;49.736;8.734;2023-04-26T07:00:36;98017.69;;;5.90;100.00
11448;BME280;43755;49.736;8.734;2023-04-26T07:02:38;98019.50;;;5.88;100.00
11448;BME280;43755;49.736;8.734;2023-04-26T07:04:40;98010.63;;;5.93;100.00
11448;BME280;43755;49.736;8.734;2023-04-26T07:06:42;98018.34;;;5.99;100.00
11448;BME280;43755;49.736;8.734;2023-04-26T07:08:44;98017.22;;;6.09;100.00
11448;BME280;43755;49.736;8.734;2023-04-26T07:10:45;98018.97;;;6.09;99.38
11448;BME280;43755;49.736;8.734;2023-04-26T07:12:47;98021.34;;;6.20;99.84
11448;BME280;43755;49.736;8.734;2023-04-26T07:14:48;98022.47;;;6.43;100.00
11448;BME280;43755;49.736;8.734;2023-04-26T07:16:50;98029.09;;;6.58;98.55
11448;BME280;43755;49.736;8.734;2023-04-26T07:18:51;98022.13;;;6.57;98.92
11448;BME280;43755;49.736;8.734;2023-04-26T07:20:54;98021.00;;;6.66;96.84
11448;BME280;43755;49.736;8.734;2023-04-26T07:22:55;98024.09;;;6.81;94.31
11448;BME280;43755;49.736;8.734;2023-04-26T07:24:57;98019.00;;;6.75;90.08
11448;BME280;43755;49.736;8.734;2023-04-26T07:26:58;98026.38;;;6.93;93.50
11448;BME280;43755;49.736;8.734;2023-04-26T07:29:00;98028.00;;;6.97;84.21
11448;BME280;43755;49.736;8.734;2023-04-26T07:31:01;98027.94;;;7.01;85.27
11448;BME280;43755;49.736;8.734;2023-04-26T07:33:03;98022.59;;;7.04;96.48
11448;BME280;43755;49.736;8.734;2023-04-26T07:35:05;98019.25;;;6.97;96.77
11448;BME280;43755;49.736;8.734;2023-04-26T07:37:09;98019.47;;;7.20;92.37
11448;BME280;43755;49.736;8.734;2023-04-26T07:39:10;98025.75;;;7.46;89.36
11448;BME280;43755;49.736;8.734;2023-04-26T07:41:12;98024.50;;;7.57;84.60
11448;BME280;43755;49.736;8.734;2023-04-26T07:43:15;98014.69;;;7.90;84.31
11448;BME280;43755;49.736;8.734;2023-04-26T07:45:17;98017.38;;;7.89;80.45
11448;BME280;43755;49.736;8.734;2023-04-26T07:47:18;98018.94;;;7.66;84.63
11448;BME280;43755;49.736;8.734;2023-04-26T07:49:20;98024.09;;;7.71;87.01
11448;BME280;43755;49.736;8.734;2023-04-26T07:51:21;98021.47;;;7.97;83.61
11448;BME280;43755;49.736;8.734;2023-04-26T07:53:24;98020.47;;;7.73;78.56
11448;BME280;43755;49.736;8.734;2023-04-26T07:55:26;98020.44;;;7.75;83.42
11448;BME280;43755;49.736;8.734;2023-04-26T07:57:27;98018.13;;;7.92;83.80
11448;BME280;43755;49.736;8.734;2023-04-26T07:59:28;98025.84;;;7.98;77.41
11448;BME280;43755;49.736;8.734;2023-04-26T08:01:30;98027.19;;;7.83;81.04
11448;BME280;43755;49.736;8.734;2023-04-26T08:03:32;98025.19;;;7.92;80.09
11448;BME280;43755;49.736;8.734;2023-04-26T08:05:33;98029.69;;;7.88;82.88
11448;BME280;43755;49.736;8.734;2023-04-26T08:07:35;98032.66;;;8.05;79.39
11448;BME280;43755;49.736;8.734;2023-04-26T08:09:37;98029.97;;;7.79;71.44
11448;BME280;43755;49.736;8.734;2023-04-26T08:11:39;98040.97;;;7.92;85.49
11448;BME280;43755;49.736;8.734;2023-04-26T08:13:41;98040.34;;;7.83;75.95
11448;BME280;43755;49.736;8.734;2023-04-26T08:15:43;98036.69;;;7.89;83.95
11448;BME280;43755;49.736;8.734;2023-04-26T08:17:44;98031.78;;;8.05;70.64
11448;BME280;43755;49.736;8.734;2023-04-26T08:19:46;98036.00;;;8.10;68.39
11448;BME280;43755;49.736;8.734;2023-04-26T08:21:47;98034.63;;;8.25;71.66
11448;BME280;43755;49.736;8.734;2023-04-26T08:23:49;98041.28;;;8.37;73.45
11448;BME280;43755;49.736;8.734;2023-04-26T08:25:52;98038.06;;;8.27;79.08
11448;BME280;43755;49.736;8.734;2023-04-26T08:27:53;98037.31;;;8.23;74.76
11448;BME280;43755;49.736;8.734;2023-04-26T08:29:55;98040.34;;;8.39;72.93
11448;BME280;43755;49.736;8.734;2023-04-26T08:31:56;98043.59;;;8.19;66.82
11448;BME280;43755;49.736;8.734;2023-04-26T08:33:58;98038.06;;;8.27;68.65
11448;BME280;43755;49.736;8.734;2023-04-26T08:35:59;98032.22;;;8.45;73.05
11448;BME280;43755;49.736;8.734;2023-04-26T08:38:01;98037.75;;;8.89;73.62
11448;BME280;43755;49.736;8.734;2023-04-26T08:40:03;98043.09;;;8.61;69.37
11448;BME280;43755;49.736;8.734;2023-04-26T08:42:13;98037.91;;;8.59;79.54
11448;BME280;43755;49.736;8.734;2023-04-26T08:44:15;98040.78;;;8.52;70.77
11448;BME280;43755;49.736;8.734;2023-04-26T08:46:18;98039.19;;;8.73;71.30
11448;BME280;43755;49.736;8.734;2023-04-26T08:48:20;98040.03;;;8.73;77.64
11448;BME280;43755;49.736;8.734;2023-04-26T08:50:23;98037.84;;;8.86;76.40
11448;BME280;43755;49.736;8.734;2023-04-26T08:52:27;98036.91;;;8.62;73.30
11448;BME280;43755;49.736;8.734;2023-04-26T08:54:30;98037.53;;;8.44;71.73
11448;BME280;43755;49.736;8.734;2023-04-26T08:56:32;98033.25;;;8.66;80.60
11448;BME280;43755;49.736;8.734;2023-04-26T08:58:36;98029.91;;;8.61;70.34
11448;BME280;43755;49.736;8.734;2023-04-26T09:00:38;98022.38;;;8.50;75.91
11448;BME280;43755;49.736;8.734;2023-04-26T09:02:39;98029.25;;;8.54;71.51
11448;BME280;43755;49.736;8.734;2023-04-26T09:04:42;98024.16;;;8.50;74.45
11448;BME280;43755;49.736;8.734;2023-04-26T09:06:44;98029.59;;;8.45;81.87
11448;BME280;43755;49.736;8.734;2023-04-26T09:08:46;98027.88;;;8.44;75.66
11448;BME280;43755;49.736;8.734;2023-04-26T09:10:48;98020.84;;;8.70;68.11
11448;BME280;43755;49.736;8.734;2023-04-26T09:12:50;98024.25;;;8.96;74.02
11448;BME280;43755;49.736;8.734;2023-04-26T09:14:53;98016.03;;;9.29;71.09
11448;BME280;43755;49.736;8.734;2023-04-26T09:16:55;98017.97;;;9.70;68.53
11448;BME280;43755;49.736;8.734;2023-04-26T09:18:57;98013.78;;;10.08;68.85
11448;BME280;43755;49.736;8.734;2023-04-26T09:21:04;98017.34;;;10.31;57.75
11448;BME280;43755;49.736;8.734;2023-04-26T09:23:08;98020.66;;;10.56;63.43
11448;BME280;43755;49.736;8.734;2023-04-26T09:25:09;98018.03;;;10.76;59.77
11448;BME280;43755;49.736;8.734;2023-04-26T09:27:12;98018.09;;;10.75;61.88
11448;BME280;43755;49.736;8.734;2023-04-26T09:29:16;98019.63;;;10.18;57.15
11448;BME280;43755;49.736;8.734;2023-04-26T09:31:36;98020.63;;;9.92;59.39
11448;BME280;43755;49.736;8.734;2023-04-26T09:33:56;98013.94;;;9.83;65.67
11448;BME280;43755;49.736;8.734;2023-04-26T09:36:10;98021.38;;;9.72;63.47
11448;BME280;43755;49.736;8.734;2023-04-26T09:38:13;98014.53;;;9.90;63.32
11448;BME280;43755;49.736;8.734;2023-04-26T09:40:17;98016.72;;;9.57;72.89
11448;BME280;43755;49.736;8.734;2023-04-26T09:42:19;98031.13;;;9.25;64.11
11448;BME280;43755;49.736;8.734;2023-04-26T09:44:21;98033.06;;;9.20;66.68
11448;BME280;43755;49.736;8.734;2023-04-26T09:46:24;98028.00;;;9.14;59.67
11448;BME280;43755;49.736;8.734;2023-04-26T09:48:27;98029.47;;;9.46;58.51
11448;BME280;43755;49.736;8.734;2023-04-26T09:50:30;98028.16;;;9.79;57.98
11448;BME280;43755;49.736;8.734;2023-04-26T09:52:41;98017.25;;;10.10;58.45
11448;BME280;43755;49.736;8.734;2023-04-26T09:54:44;98017.25;;;10.32;58.10
11448;BME280;43755;49.736;8.734;2023-04-26T09:56:58;98017.50;;;10.48;54.83
11448;BME280;43755;49.736;8.734;2023-04-26T09:59:00;98015.00;;;10.43;53.47
11448;BME280;43755;49.736;8.734;2023-04-26T10:01:05;98011.94;;;10.54;56.40
11448;BME280;43755;49.736;8.734;2023-04-26T10:03:10;98005.00;;;10.72;56.43
11448;BME280;43755;49.736;8.734;2023-04-26T10:05:13;98007.88;;;11.06;57.70
11448;BME280;43755;49.736;8.734;2023-04-26T10:07:16;98005.34;;;11.23;53.20
11448;BME280;43755;49.736;8.734;2023-04-26T10:09:18;98006.63;;;11.33;55.13
11448;BME280;43755;49.736;8.734;2023-04-26T10:11:20;98009.53;;;11.47;52.05
11448;BME280;43755;49.736;8.734;2023-04-26T10:13:22;98013.69;;;11.14;48.80
11448;BME280;43755;49.736;8.734;2023-04-26T10:15:23;98005.59;;;10.14;52.83
11448;BME280;43755;49.736;8.734;2023-04-26T10:17:25;97997.75;;;9.91;52.96
11448;BME280;43755;49.736;8.734;2023-04-26T10:19:28;97999.44;;;9.94;49.33
11448;BME280;43755;49.736;8.734;2023-04-26T10:21:33;98002.75;;;10.42;50.10
11448;BME280;43755;49.736;8.734;2023-04-26T10:23:37;98000.00;;;10.84;51.63
11448;BME280;43755;49.736;8.734;2023-04-26T10:25:40;97999.63;;;10.93;50.81
11448;BME280;43755;49.736;8.734;2023-04-26T10:27:48;98006.69;;;10.73;43.72
11448;BME280;43755;49.736;8.734;2023-04-26T10:30:07;98007.13;;;10.21;53.09
11448;BME280;43755;49.736;8.734;2023-04-26T10:32:09;98007.41;;;9.92;48.34
11448;BME280;43755;49.736;8.734;2023-04-26T10:34:18;98010.28;;;9.64;51.12
11448;BME280;43755;49.736;8.734;2023-04-26T10:36:21;98003.28;;;9.40;49.23
11448;BME280;43755;49.736;8.734;2023-04-26T10:38:23;97993.22;;;9.50;50.97
11448;BME280;43755;49.736;8.734;2023-04-26T10:40:26;97995.31;;;9.65;54.12
11448;BME280;43755;49.736;8.734;2023-04-26T10:42:28;97995.41;;;9.62;53.59
11448;BME280;43755;49.736;8.734;2023-04-26T10:44:39;97996.84;;;9.70;53.50
11448;BME280;43755;49.736;8.734;2023-04-26T10:46:41;97995.78;;;9.96;48.92
11448;BME280;43755;49.736;8.734;2023-04-26T10:48:43;97996.75;;;10.15;49.66